Time;durP1;ratioP1;P1;durP2;ratioP2;P2;SDS_P1;SDS_P2;PMS_P1;PMS_P2;Temp;Humidity;BMP_temperature;BMP_pressure;BME280_temperature;BME280_humidity;BME280_pressure;Samples;Min_cycle;Max_cycle;Signal;HPM_P1;HPM_P2
2023/06/16 00:02:22;;;;;;;7.53;5.18;;;19.10;99.90;;;;;;5092507;28;20028;-63
2023/06/16 00:05:12;;;;;;;9.27;6.25;;;19.10;99.90;;;;;;5091527;28;20028;-63
2023/06/16 00:08:00;;;;;;;6.65;4.93;;;19.10;99.90;;;;;;5106112;28;20081;-63
2023/06/16 00:10:46;;;;;;;8.10;5.68;;;19.10;99.90;;;;;;5093894;28;20035;-64
2023/06/16 00:13:32;;;;;;;8.93;5.85;;;19.10;99.90;;;;;;5090231;28;20020;-64
2023/06/16 00:16:22;;;;;;;20.20;5.47;;;19.10;99.90;;;;;;5091491;28;20529;-64
2023/06/16 00:19:08;;;;;;;6.80;4.93;;;19.10;99.90;;;;;;5089997;28;20374;-63
2023/06/16 00:21:59;;;;;;;7.47;5.00;;;19.10;99.90;;;;;;5090984;28;20404;-64
2023/06/16 00:24:45;;;;;;;7.38;5.15;;;19.10;99.90;;;;;;5089772;28;20024;-63
2023/06/16 00:27:31;;;;;;;7.82;4.70;;;19.10;99.90;;;;;;5091590;28;20057;-63
2023/06/16 00:30:17;;;;;;;8.48;4.75;;;19.00;99.90;;;;;;5089745;28;20031;-64
2023/06/16 00:33:03;;;;;;;9.00;5.05;;;19.00;99.90;;;;;;5110140;28;20552;-64
2023/06/16 00:35:49;;;;;;;8.30;4.93;;;19.00;99.60;;;;;;5101988;28;20031;-64
2023/06/16 00:38:35;;;;;;;5.53;4.47;;;18.90;99.40;;;;;;5109398;28;20041;-63
2023/06/16 00:41:21;;;;;;;7.63;4.80;;;18.80;99.30;;;;;;5093614;28;20047;-63
2023/06/16 00:44:07;;;;;;;6.20;4.97;;;18.80;99.40;;;;;;5089581;28;20425;-63
2023/06/16 00:46:54;;;;;;;8.70;5.75;;;18.70;99.50;;;;;;5104163;28;20080;-62
2023/06/16 00:49:40;;;;;;;7.35;5.35;;;18.70;99.60;;;;;;5107893;28;20038;-63
2023/06/16 00:52:29;;;;;;;11.63;5.68;;;18.70;99.70;;;;;;5091596;28;20076;-63
2023/06/16 00:55:16;;;;;;;5.72;4.68;;;18.70;99.80;;;;;;5088376;28;20039;-64
2023/06/16 00:58:03;;;;;;;8.07;5.55;;;18.70;99.90;;;;;;5088952;28;20028;-64
2023/06/16 01:00:49;;;;;;;6.47;5.28;;;18.70;99.90;;;;;;5093148;28;20040;-64
2023/06/16 01:03:35;;;;;;;6.18;4.90;;;18.70;99.90;;;;;;5088753;28;20024;-63
2023/06/16 01:06:25;;;;;;;7.97;5.43;;;18.60;99.90;;;;;;5099333;28;20040;-64
2023/06/16 01:09:39;;;;;;;8.60;5.40;;;18.60;99.90;;;;;;5107277;28;20087;-63
2023/06/16 01:12:26;;;;;;;9.23;5.32;;;18.60;99.90;;;;;;5093482;28;20123;-63
2023/06/16 01:15:16;;;;;;;7.00;4.97;;;18.60;99.90;;;;;;5103553;28;20036;-64
2023/06/16 01:18:05;;;;;;;7.10;4.90;;;18.60;99.90;;;;;;5097446;28;20036;-63
2023/06/16 01:20:56;;;;;;;7.78;5.32;;;18.50;99.90;;;;;;5074126;28;20039;-64
2023/06/16 01:24:03;;;;;;;8.60;5.50;;;18.50;99.90;;;;;;5088611;28;20040;-64
2023/06/16 01:26:53;;;;;;;7.72;5.35;;;18.50;99.90;;;;;;5099242;28;20106;-63
2023/06/16 01:29:40;;;;;;;9.45;4.93;;;18.50;99.90;;;;;;5104856;28;20096;-64
2023/06/16 01:32:27;;;;;;;8.85;5.18;;;18.40;99.90;;;;;;5100391;28;20480;-63
2023/06/16 01:35:14;;;;;;;7.88;5.53;;;18.40;99.90;;;;;;5088706;28;20044;-64
2023/06/16 01:38:01;;;;;;;8.55;5.35;;;18.40;99.90;;;;;;5089773;28;20052;-64
2023/06/16 01:40:51;;;;;;;6.72;5.00;;;18.30;99.90;;;;;;5092855;28;20043;-63
2023/06/16 01:43:37;;;;;;;6.28;4.75;;;18.30;99.90;;;;;;5105370;28;20059;-64
2023/06/16 01:46:24;;;;;;;7.47;5.38;;;18.30;99.90;;;;;;5092205;28;20066;-65
2023/06/16 01:49:11;;;;;;;7.38;5.35;;;18.30;99.90;;;;;;5089187;28;20050;-63
2023/06/16 01:51:57;;;;;;;8.25;4.93;;;18.30;99.90;;;;;;5087291;28;20048;-64
2023/06/16 01:54:43;;;;;;;7.20;4.45;;;18.30;99.90;;;;;;5089733;28;20032;-64
2023/06/16 01:57:30;;;;;;;6.47;4.57;;;18.30;99.90;;;;;;5087924;28;20501;-64
2023/06/16 02:00:22;;;;;;;7.30;4.50;;;18.30;99.90;;;;;;5102012;28;20114;-64
2023/06/16 02:03:16;;;;;;;5.43;4.20;;;18.30;99.90;;;;;;5088252;28;20113;-64
2023/06/16 02:06:07;;;;;;;6.88;4.63;;;18.30;99.90;;;;;;5097982;28;20046;-64
2023/06/16 02:08:56;;;;;;;6.57;4.65;;;18.30;99.90;;;;;;5099261;28;20032;-64
2023/06/16 02:11:43;;;;;;;6.85;4.38;;;18.30;99.90;;;;;;5088367;28;20074;-64
2023/06/16 02:14:33;;;;;;;6.07;4.40;;;18.30;99.90;;;;;;5086993;28;20412;-64
2023/06/16 02:17:19;;;;;;;7.05;4.78;;;18.30;99.90;;;;;;5091494;28;20039;-64
2023/06/16 02:20:06;;;;;;;6.50;4.53;;;18.30;99.90;;;;;;5102375;28;20091;-64
2023/06/16 02:22:53;;;;;;;6.00;4.60;;;18.30;99.90;;;;;;5082155;28;20047;-64
2023/06/16 02:25:39;;;;;;;6.63;4.07;;;18.30;99.90;;;;;;5101832;28;20058;-63
2023/06/16 02:28:25;;;;;;;5.80;4.32;;;18.30;99.90;;;;;;5088331;28;20067;-64
2023/06/16 02:31:12;;;;;;;8.07;5.05;;;18.30;99.90;;;;;;5089959;28;20059;-64
2023/06/16 02:33:58;;;;;;;8.10;4.55;;;18.30;99.90;;;;;;5087629;28;20520;-64
2023/06/16 02:36:44;;;;;;;5.57;4.15;;;18.30;99.90;;;;;;5102604;28;20051;-64
2023/06/16 02:39:30;;;;;;;6.97;4.75;;;18.30;99.90;;;;;;5096043;28;20126;-64
2023/06/16 02:42:16;;;;;;;8.57;5.22;;;18.30;99.90;;;;;;5101052;28;20036;-67
2023/06/16 02:45:02;;;;;;;7.93;4.40;;;18.30;99.90;;;;;;5107954;28;20046;-68
2023/06/16 02:47:48;;;;;;;7.07;4.25;;;18.30;99.90;;;;;;5090884;28;20095;-68
2023/06/16 02:50:34;;;;;;;7.85;5.03;;;18.30;99.90;;;;;;5100618;28;20063;-67
2023/06/16 02:53:20;;;;;;;6.97;4.68;;;18.30;99.90;;;;;;5102522;28;20055;-67
2023/06/16 02:56:10;;;;;;;9.80;4.65;;;18.30;99.90;;;;;;5103683;28;20476;-68
2023/06/16 02:58:56;;;;;;;7.53;4.43;;;18.30;99.90;;;;;;5092009;28;20504;-68
2023/06/16 03:01:42;;;;;;;6.88;4.60;;;18.30;99.80;;;;;;5098340;28;20443;-68
2023/06/16 03:04:28;;;;;;;6.40;4.65;;;18.30;99.70;;;;;;5110164;28;20080;-68
2023/06/16 03:07:14;;;;;;;6.45;4.35;;;18.20;99.40;;;;;;5095441;28;20032;-68
2023/06/16 03:10:02;;;;;;;9.10;4.25;;;18.20;99.40;;;;;;5096737;28;20043;-67
2023/06/16 03:12:48;;;;;;;9.40;4.72;;;18.20;99.40;;;;;;5090482;28;20374;-67
2023/06/16 03:15:36;;;;;;;6.97;4.38;;;18.20;99.40;;;;;;5090789;28;20036;-67
2023/06/16 03:18:22;;;;;;;8.82;5.18;;;18.20;99.50;;;;;;5091119;28;20040;-69
2023/06/16 03:21:08;;;;;;;8.55;4.95;;;18.10;99.20;;;;;;5093678;28;20111;-66
2023/06/16 03:23:54;;;;;;;7.93;4.75;;;18.00;99.20;;;;;;5111808;28;20111;-67
2023/06/16 03:26:40;;;;;;;8.45;4.65;;;18.00;99.30;;;;;;5109383;28;20048;-67
2023/06/16 03:29:26;;;;;;;9.68;5.43;;;18.00;99.30;;;;;;5108023;28;20035;-68
2023/06/16 03:32:12;;;;;;;10.30;5.55;;;18.00;99.40;;;;;;5093383;28;20062;-67
2023/06/16 03:35:01;;;;;;;8.30;5.18;;;17.90;99.40;;;;;;5107188;28;20051;-68
2023/06/16 03:37:47;;;;;;;7.07;4.70;;;17.90;99.50;;;;;;5090034;28;20488;-67
2023/06/16 03:40:33;;;;;;;7.82;5.13;;;17.80;99.40;;;;;;5091168;28;20504;-68
2023/06/16 03:43:18;;;;;;;8.68;5.45;;;17.80;99.60;;;;;;5094275;28;20034;-68
2023/06/16 03:46:04;;;;;;;10.20;5.72;;;17.80;99.60;;;;;;5091925;28;20534;-68
2023/06/16 03:48:50;;;;;;;7.30;5.47;;;17.80;99.50;;;;;;5102040;28;20031;-68
2023/06/16 03:51:37;;;;;;;9.00;6.15;;;17.70;99.70;;;;;;5094803;28;20070;-67
2023/06/16 03:54:23;;;;;;;6.82;5.43;;;17.70;99.80;;;;;;5092969;28;20431;-68
2023/06/16 03:57:09;;;;;;;8.52;5.60;;;17.70;99.90;;;;;;5095995;28;20042;-67
2023/06/16 03:59:55;;;;;;;11.27;5.88;;;17.70;99.90;;;;;;5105237;28;20059;-67
2023/06/16 04:02:42;;;;;;;7.57;5.75;;;17.70;99.90;;;;;;5086572;28;20028;-67
2023/06/16 04:05:27;;;;;;;7.03;5.35;;;17.70;99.90;;;;;;5091598;28;20111;-68
2023/06/16 04:08:13;;;;;;;9.68;5.28;;;17.70;99.60;;;;;;5110705;28;20464;-68
2023/06/16 04:10:59;;;;;;;9.27;6.30;;;17.70;99.60;;;;;;5096403;28;20031;-67
2023/06/16 04:13:45;;;;;;;8.32;5.80;;;17.70;99.60;;;;;;5093894;28;20047;-68
2023/06/16 04:16:31;;;;;;;7.68;5.53;;;17.70;99.70;;;;;;5091293;28;20503;-67
2023/06/16 04:19:20;;;;;;;8.57;6.15;;;17.70;99.80;;;;;;5089863;28;20028;-68
2023/06/16 04:22:06;;;;;;;7.93;6.00;;;17.70;99.80;;;;;;5089483;28;20036;-67
2023/06/16 04:24:52;;;;;;;7.43;5.72;;;17.70;99.90;;;;;;5091965;28;20035;-67
2023/06/16 04:27:38;;;;;;;7.55;5.57;;;17.70;99.90;;;;;;5102114;28;20050;-68
2023/06/16 04:30:24;;;;;;;9.73;6.63;;;17.80;99.90;;;;;;5090917;27;20031;-68
2023/06/16 04:33:10;;;;;;;8.57;6.03;;;17.80;99.90;;;;;;5103590;28;20377;-68
2023/06/16 04:35:56;;;;;;;7.47;5.78;;;17.80;99.90;;;;;;5108861;28;20454;-68
2023/06/16 04:38:43;;;;;;;8.70;5.40;;;17.80;99.90;;;;;;5093747;28;20850;-68
2023/06/16 04:41:29;;;;;;;7.00;5.72;;;17.80;99.90;;;;;;5089495;28;20106;-68
2023/06/16 04:44:14;;;;;;;7.22;5.32;;;17.80;99.90;;;;;;5091444;28;20038;-68
2023/06/16 04:47:01;;;;;;;9.57;5.13;;;17.70;99.90;;;;;;5091381;28;20039;-67
2023/06/16 04:49:47;;;;;;;5.85;5.07;;;17.70;99.90;;;;;;5093030;28;20188;-66
2023/06/16 04:52:33;;;;;;;7.07;5.57;;;17.70;99.90;;;;;;5090027;28;20024;-69
2023/06/16 04:55:20;;;;;;;9.43;4.75;;;17.80;99.90;;;;;;5092237;28;20439;-68
2023/06/16 04:58:06;;;;;;;8.10;4.85;;;17.80;99.90;;;;;;5105163;28;20035;-68
2023/06/16 05:00:52;;;;;;;7.53;5.70;;;17.80;99.90;;;;;;5101278;28;20039;-68
2023/06/16 05:03:38;;;;;;;9.70;5.50;;;17.80;99.90;;;;;;5089315;28;20032;-68
2023/06/16 05:06:24;;;;;;;7.53;4.97;;;17.80;99.90;;;;;;5091324;28;20458;-68
2023/06/16 05:09:10;;;;;;;9.70;5.47;;;17.80;99.90;;;;;;5089212;28;20485;-68
2023/06/16 05:11:56;;;;;;;9.05;5.55;;;17.80;99.90;;;;;;5098579;28;20035;-68
2023/06/16 05:14:42;;;;;;;7.03;5.20;;;17.70;99.90;;;;;;5095574;28;20166;-68
2023/06/16 05:17:28;;;;;;;7.88;5.30;;;17.80;99.90;;;;;;5088347;28;20433;-69
2023/06/16 05:20:14;;;;;;;8.02;5.07;;;17.90;99.90;;;;;;5089024;28;20037;-71
2023/06/16 05:23:03;;;;;;;10.10;6.03;;;17.80;99.90;;;;;;5096447;28;20032;-73
2023/06/16 05:25:49;;;;;;;8.60;5.25;;;17.90;99.90;;;;;;5093350;28;20457;-74
2023/06/16 05:28:35;;;;;;;7.75;4.95;;;18.00;99.90;;;;;;5089280;27;20036;-69
2023/06/16 05:31:21;;;;;;;8.73;5.90;;;18.00;99.90;;;;;;5089303;28;20090;-65
2023/06/16 05:34:07;;;;;;;7.40;5.00;;;18.10;99.90;;;;;;5088828;28;20196;-63
2023/06/16 05:36:53;;;;;;;6.65;5.18;;;18.10;99.90;;;;;;5103349;28;20043;-64
2023/06/16 05:39:38;;;;;;;8.25;5.38;;;18.10;99.90;;;;;;5092741;28;20032;-65
2023/06/16 05:42:24;;;;;;;10.75;5.43;;;18.10;99.90;;;;;;5089263;28;20560;-64
2023/06/16 05:45:10;;;;;;;7.40;5.88;;;18.10;99.90;;;;;;5087182;28;20024;-64
2023/06/16 05:47:57;;;;;;;8.98;5.03;;;18.10;99.90;;;;;;5088452;28;20187;-64
2023/06/16 05:50:43;;;;;;;6.70;4.97;;;18.20;99.90;;;;;;5093759;28;20039;-64
2023/06/16 05:53:29;;;;;;;6.13;4.65;;;18.20;99.90;;;;;;5105344;28;20029;-64
2023/06/16 05:56:16;;;;;;;7.15;4.90;;;18.30;99.90;;;;;;5095623;28;20071;-64
2023/06/16 05:59:02;;;;;;;6.30;4.75;;;18.20;99.90;;;;;;5089660;28;20031;-64
2023/06/16 06:01:51;;;;;;;6.95;4.80;;;18.30;99.90;;;;;;5090986;28;20481;-64
2023/06/16 06:04:37;;;;;;;7.63;4.72;;;18.30;99.90;;;;;;5090252;28;20032;-64
2023/06/16 06:07:23;;;;;;;6.78;5.05;;;18.30;99.90;;;;;;5088000;28;20075;-64
2023/06/16 06:10:09;;;;;;;6.85;4.85;;;18.30;99.90;;;;;;5096597;28;20134;-64
2023/06/16 06:12:55;;;;;;;6.07;4.78;;;18.30;99.90;;;;;;5106298;28;20046;-71
2023/06/16 06:15:42;;;;;;;7.53;4.43;;;18.30;99.90;;;;;;5099196;28;20039;-71
2023/06/16 06:18:28;;;;;;;9.98;4.82;;;18.30;99.90;;;;;;5105854;28;20028;-72
2023/06/16 06:21:14;;;;;;;6.93;5.15;;;18.30;99.90;;;;;;5097721;28;20028;-71
2023/06/16 06:24:00;;;;;;;6.28;4.10;;;18.30;99.90;;;;;;5100266;28;20036;-72
2023/06/16 06:26:46;;;;;;;5.18;4.13;;;18.30;99.90;;;;;;5112482;28;20038;-71
2023/06/16 06:29:32;;;;;;;5.28;4.00;;;18.30;99.90;;;;;;5104645;27;20024;-68
2023/06/16 06:32:18;;;;;;;6.25;3.78;;;18.40;99.90;;;;;;5088820;28;20031;-65
2023/06/16 06:35:05;;;;;;;5.35;4.10;;;18.40;99.90;;;;;;5089244;28;20043;-67
2023/06/16 06:37:51;;;;;;;5.47;4.20;;;18.40;99.90;;;;;;5089255;28;20471;-67
2023/06/16 06:40:37;;;;;;;5.80;3.88;;;18.50;99.90;;;;;;5089740;28;20031;-67
2023/06/16 06:43:25;;;;;;;5.88;4.18;;;18.50;99.90;;;;;;5088055;28;20582;-67
2023/06/16 06:46:11;;;;;;;5.50;4.18;;;18.40;99.90;;;;;;5092099;28;20182;-67
2023/06/16 06:48:57;;;;;;;5.07;3.95;;;18.40;99.90;;;;;;5089029;28;20129;-67
2023/06/16 06:51:43;;;;;;;6.38;4.63;;;18.40;99.90;;;;;;5090304;28;20120;-67
2023/06/16 06:54:29;;;;;;;6.07;4.32;;;18.40;99.90;;;;;;5090634;28;20699;-69
2023/06/16 06:57:15;;;;;;;6.47;4.53;;;18.40;99.90;;;;;;5089630;28;20036;-67
2023/06/16 07:00:01;;;;;;;6.95;4.97;;;18.30;99.90;;;;;;5088545;28;20059;-67
2023/06/16 07:02:47;;;;;;;5.57;4.28;;;18.30;99.90;;;;;;5091657;28;20521;-67
2023/06/16 07:05:34;;;;;;;7.10;4.85;;;18.30;99.90;;;;;;5091288;28;20163;-66
2023/06/16 07:08:20;;;;;;;6.90;4.85;;;18.20;99.90;;;;;;5079171;28;20035;-68
2023/06/16 07:11:05;;;;;;;5.40;4.05;;;18.20;99.90;;;;;;5090115;28;20174;-67
2023/06/16 07:13:51;;;;;;;5.35;4.00;;;18.20;99.90;;;;;;5091501;28;20109;-67
2023/06/16 07:16:37;;;;;;;5.65;4.10;;;18.20;99.90;;;;;;5088516;28;20036;-68
2023/06/16 07:19:26;;;;;;;6.32;3.92;;;18.20;99.90;;;;;;5089867;28;20035;-67
2023/06/16 07:22:12;;;;;;;5.85;4.28;;;18.20;99.90;;;;;;5088185;28;20040;-68
2023/06/16 07:24:58;;;;;;;6.28;4.30;;;18.30;99.90;;;;;;5088802;28;20124;-68
2023/06/16 07:27:44;;;;;;;4.93;4.15;;;18.30;99.90;;;;;;5089002;28;20288;-67
2023/06/16 07:30:30;;;;;;;7.20;4.32;;;18.30;99.90;;;;;;5091629;28;20480;-68
2023/06/16 07:33:16;;;;;;;6.68;4.25;;;18.30;99.90;;;;;;5088670;28;20035;-68
2023/06/16 07:36:03;;;;;;;5.93;4.55;;;18.30;99.90;;;;;;5090282;28;20047;-67
2023/06/16 07:38:49;;;;;;;7.10;5.13;;;18.30;99.90;;;;;;5089035;28;20092;-67
2023/06/16 07:41:35;;;;;;;5.95;4.63;;;18.30;99.90;;;;;;5091000;28;20031;-68
2023/06/16 07:44:21;;;;;;;6.55;4.88;;;18.40;99.90;;;;;;5091852;28;20067;-73
2023/06/16 07:47:07;;;;;;;7.32;5.13;;;18.40;99.90;;;;;;5087381;28;20036;-68
2023/06/16 07:49:52;;;;;;;7.65;4.72;;;18.40;99.90;;;;;;5089770;28;20059;-68
2023/06/16 07:52:39;;;;;;;7.45;4.90;;;18.50;99.90;;;;;;5090857;28;20476;-68
2023/06/16 07:55:25;;;;;;;9.43;5.70;;;18.50;99.90;;;;;;5089338;28;20069;-68
2023/06/16 07:58:11;;;;;;;9.57;5.10;;;18.50;99.90;;;;;;5091830;28;20023;-68
2023/06/16 08:00:57;;;;;;;6.65;4.97;;;18.60;99.90;;;;;;5088898;28;20039;-67
2023/06/16 08:03:46;;;;;;;9.68;6.13;;;18.70;99.90;;;;;;5085573;28;20032;-67
2023/06/16 08:06:32;;;;;;;8.50;6.20;;;18.90;99.90;;;;;;5090829;28;20027;-67
2023/06/16 08:09:18;;;;;;;7.75;6.03;;;19.10;99.90;;;;;;5087173;28;20549;-67
2023/06/16 08:12:04;;;;;;;8.77;5.47;;;19.30;99.90;;;;;;5090781;28;20036;-67
2023/06/16 08:14:50;;;;;;;6.95;5.18;;;19.50;99.90;;;;;;5087484;28;20054;-67
2023/06/16 08:17:36;;;;;;;7.55;5.38;;;19.50;99.90;;;;;;5088796;28;20039;-67
2023/06/16 08:20:22;;;;;;;8.82;5.82;;;19.50;99.90;;;;;;5089237;28;20031;-67
2023/06/16 08:23:09;;;;;;;7.22;5.80;;;19.60;99.90;;;;;;5074587;28;20050;-67
2023/06/16 08:25:55;;;;;;;7.90;5.47;;;19.70;99.90;;;;;;5077685;28;20089;-67
2023/06/16 08:28:42;;;;;;;6.05;5.38;;;19.80;99.90;;;;;;5089204;28;20559;-66
2023/06/16 08:31:28;;;;;;;8.73;5.45;;;19.90;99.90;;;;;;5088452;28;20103;-67
2023/06/16 08:34:14;;;;;;;6.43;5.47;;;20.10;99.90;;;;;;5071712;28;20126;-66
2023/06/16 08:37:01;;;;;;;7.45;4.75;;;20.30;99.90;;;;;;5087746;28;20039;-68
2023/06/16 08:39:47;;;;;;;6.40;5.07;;;20.40;99.80;;;;;;5088346;28;20384;-68
2023/06/16 08:42:37;;;;;;;5.60;4.32;;;20.60;99.50;;;;;;5071480;28;20132;-74
2023/06/16 08:45:23;;;;;;;5.65;4.00;;;20.80;99.10;;;;;;5087577;28;20870;-73
2023/06/16 08:48:11;;;;;;;5.88;3.83;;;20.70;99.00;;;;;;5087340;28;20069;-73
2023/06/16 08:50:59;;;;;;;6.63;4.00;;;20.50;98.70;;;;;;5100752;28;20483;-70
2023/06/16 08:53:47;;;;;;;5.47;3.17;;;20.40;98.90;;;;;;5098079;28;20040;-70
2023/06/16 08:56:33;;;;;;;6.13;3.65;;;20.10;99.00;;;;;;5090620;28;20044;-70
2023/06/16 08:59:22;;;;;;;7.05;3.53;;;19.80;99.20;;;;;;5090132;28;20473;-68
2023/06/16 09:02:08;;;;;;;6.57;3.40;;;19.40;99.90;;;;;;5093070;28;20047;-68
2023/06/16 09:04:54;;;;;;;9.00;3.67;;;19.30;99.90;;;;;;5095383;28;20468;-69
2023/06/16 09:07:41;;;;;;;7.07;3.95;;;19.10;99.90;;;;;;5087108;28;20024;-71
2023/06/16 09:10:26;;;;;;;6.32;3.90;;;19.00;99.90;;;;;;5096104;28;20105;-69
2023/06/16 09:13:15;;;;;;;4.88;3.65;;;18.90;99.90;;;;;;5094193;28;20032;-69
2023/06/16 09:16:01;;;;;;;4.95;3.42;;;18.90;99.90;;;;;;5090179;28;20036;-69
2023/06/16 09:18:48;;;;;;;4.07;3.03;;;18.80;99.90;;;;;;5088939;28;20107;-68
2023/06/16 09:21:34;;;;;;;5.82;3.10;;;18.80;99.90;;;;;;5089320;28;20032;-70
2023/06/16 09:24:26;;;;;;;4.90;3.47;;;18.70;99.90;;;;;;5089086;28;20032;-70
2023/06/16 09:27:12;;;;;;;4.20;2.83;;;18.70;99.90;;;;;;5099209;28;20107;-71
2023/06/16 09:30:00;;;;;;;4.63;3.10;;;18.70;99.90;;;;;;5103966;28;20035;-70
2023/06/16 09:32:47;;;;;;;4.72;3.00;;;18.70;99.90;;;;;;5088465;28;20139;-69
2023/06/16 09:35:33;;;;;;;4.50;3.10;;;18.70;99.90;;;;;;5091211;28;20095;-70
2023/06/16 09:38:20;;;;;;;6.05;3.00;;;18.70;99.90;;;;;;5090198;28;20038;-70
2023/06/16 09:41:18;;;;;;;4.75;2.83;;;18.70;99.90;;;;;;5098059;28;20352;-67
2023/06/16 09:44:04;;;;;;;4.07;3.33;;;18.90;99.90;;;;;;5074731;28;20039;-70
2023/06/16 09:46:51;;;;;;;4.07;3.47;;;19.00;99.90;;;;;;5093695;28;20023;-71
2023/06/16 09:49:37;;;;;;;5.40;3.10;;;19.10;99.90;;;;;;5090148;28;20028;-72
2023/06/16 09:52:25;;;;;;;4.95;3.25;;;19.30;99.90;;;;;;5088983;28;20047;-72
2023/06/16 09:55:12;;;;;;;4.50;3.30;;;19.50;99.90;;;;;;5102279;28;20106;-72
2023/06/16 09:57:59;;;;;;;5.50;3.20;;;19.70;99.90;;;;;;5090000;28;20524;-72
2023/06/16 10:00:45;;;;;;;4.18;2.92;;;19.80;99.90;;;;;;5094124;28;20050;-72
2023/06/16 10:03:33;;;;;;;4.22;3.17;;;19.90;99.90;;;;;;5087967;28;20471;-73
2023/06/16 10:06:20;;;;;;;4.82;3.72;;;19.90;99.90;;;;;;5094117;28;20313;-74
2023/06/16 10:09:09;;;;;;;5.85;3.05;;;19.90;99.50;;;;;;5098126;28;20496;-73
2023/06/16 10:11:56;;;;;;;5.47;3.30;;;19.90;99.90;;;;;;5092179;28;20056;-73
2023/06/16 10:14:43;;;;;;;6.13;3.03;;;20.00;99.40;;;;;;5090828;28;20032;-73
2023/06/16 10:17:32;;;;;;;6.97;3.47;;;20.10;99.10;;;;;;5096929;28;20110;-72
2023/06/16 10:20:23;;;;;;;6.07;3.42;;;20.20;98.90;;;;;;5090114;28;20032;-71
2023/06/16 10:23:10;;;;;;;4.72;3.45;;;20.30;98.50;;;;;;5087713;28;20107;-73
2023/06/16 10:25:57;;;;;;;5.07;3.35;;;20.20;98.40;;;;;;5090583;28;20031;-72
2023/06/16 10:28:44;;;;;;;5.45;3.45;;;20.30;98.20;;;;;;5089275;28;20043;-73
2023/06/16 10:31:31;;;;;;;6.00;3.50;;;20.30;97.90;;;;;;5097127;28;20036;-74
2023/06/16 10:34:20;;;;;;;4.45;3.30;;;20.30;98.40;;;;;;5087217;28;20060;-73
2023/06/16 10:37:08;;;;;;;5.30;3.53;;;20.30;97.90;;;;;;5088532;28;20032;-73
2023/06/16 10:39:56;;;;;;;4.43;3.30;;;20.20;97.90;;;;;;5088818;28;20059;-74
2023/06/16 10:42:42;;;;;;;6.45;3.78;;;20.10;97.70;;;;;;5103598;28;20039;-73
2023/06/16 10:45:31;;;;;;;8.05;3.92;;;20.10;97.70;;;;;;5089323;28;20040;-75
2023/06/16 10:48:17;;;;;;;4.15;3.30;;;20.20;97.60;;;;;;5087738;28;20032;-73
2023/06/16 10:51:03;;;;;;;6.80;3.95;;;20.30;97.60;;;;;;5088832;28;20458;-73
2023/06/16 10:53:51;;;;;;;5.15;3.65;;;20.30;97.30;;;;;;5089083;28;20085;-73
2023/06/16 10:56:59;;;;;;;5.30;3.25;;;20.30;97.20;;;;;;5087499;28;20051;-73
2023/06/16 11:00:10;;;;;;;7.45;3.70;;;20.40;96.70;;;;;;5097214;28;20036;-75
2023/06/16 11:03:03;;;;;;;5.60;4.05;;;20.30;96.40;;;;;;5093654;28;20527;-74
2023/06/16 11:05:58;;;;;;;4.88;3.60;;;20.30;96.50;;;;;;5091803;28;20379;-73
2023/06/16 11:08:59;;;;;;;6.10;3.75;;;20.40;96.50;;;;;;5106754;28;20093;-73
2023/06/16 11:11:45;;;;;;;6.10;3.60;;;20.60;96.50;;;;;;5103701;28;20028;-72
2023/06/16 11:14:32;;;;;;;5.07;3.22;;;20.80;96.50;;;;;;5090882;28;20115;-70
2023/06/16 11:17:19;;;;;;;6.35;3.45;;;20.80;96.20;;;;;;5090517;28;20080;-74
2023/06/16 11:20:06;;;;;;;4.78;3.40;;;20.80;95.80;;;;;;5096718;28;20746;-72
2023/06/16 11:22:52;;;;;;;5.35;3.22;;;20.90;95.80;;;;;;5092898;28;20058;-73
2023/06/16 11:25:38;;;;;;;5.55;3.83;;;21.00;95.20;;;;;;5092171;28;20032;-71
2023/06/16 11:28:24;;;;;;;9.48;3.45;;;21.10;94.80;;;;;;5090870;28;20172;-73
2023/06/16 11:31:12;;;;;;;6.55;3.67;;;21.10;94.90;;;;;;5093433;28;20028;-72
2023/06/16 11:33:59;;;;;;;6.35;3.70;;;21.20;94.70;;;;;;5088144;28;20047;-72
2023/06/16 11:36:47;;;;;;;5.25;3.72;;;21.30;94.70;;;;;;5091258;28;20134;-73
2023/06/16 11:39:45;;;;;;;4.57;3.22;;;21.30;94.30;;;;;;5091032;28;20028;-72
2023/06/16 11:42:32;;;;;;;5.43;3.92;;;21.50;94.40;;;;;;5090814;28;20458;-72
2023/06/16 11:45:18;;;;;;;5.07;3.45;;;21.70;94.10;;;;;;5098490;28;20066;-68
2023/06/16 11:48:07;;;;;;;4.43;3.17;;;21.80;93.90;;;;;;5092381;28;20047;-71
2023/06/16 11:50:53;;;;;;;8.55;4.18;;;21.90;93.60;;;;;;5102129;28;20433;-72
2023/06/16 11:53:40;;;;;;;5.55;3.70;;;21.90;93.10;;;;;;5090130;28;20566;-72
2023/06/16 11:56:27;;;;;;;5.22;3.05;;;21.80;93.40;;;;;;5093284;28;20059;-74
2023/06/16 11:59:13;;;;;;;5.70;3.60;;;21.80;93.40;;;;;;5088791;28;20046;-73
2023/06/16 12:02:03;;;;;;;4.80;3.35;;;21.70;93.30;;;;;;5091390;28;20058;-71
2023/06/16 12:04:49;;;;;;;7.60;3.60;;;21.50;93.40;;;;;;5088444;27;20028;-70
2023/06/16 12:07:36;;;;;;;5.82;3.67;;;21.30;93.90;;;;;;5102023;28;20491;-68
2023/06/16 12:10:25;;;;;;;5.72;4.05;;;21.10;94.70;;;;;;5099808;27;20042;-70
2023/06/16 12:13:11;;;;;;;9.27;4.57;;;20.90;94.80;;;;;;5088869;28;20040;-70
2023/06/16 12:15:57;;;;;;;10.88;4.70;;;20.90;95.40;;;;;;5094611;28;20527;-72
2023/06/16 12:18:43;;;;;;;7.70;3.70;;;20.90;95.30;;;;;;5104630;28;20020;-70
2023/06/16 12:21:30;;;;;;;9.07;4.50;;;20.90;95.60;;;;;;5087916;28;20104;-69
2023/06/16 12:24:21;;;;;;;7.15;3.95;;;20.80;96.00;;;;;;5096969;28;20062;-71
2023/06/16 12:27:07;;;;;;;6.70;4.07;;;20.80;96.40;;;;;;5093530;28;20050;-72
2023/06/16 12:29:57;;;;;;;6.57;4.00;;;20.90;96.40;;;;;;5101474;28;20028;-65
2023/06/16 12:32:45;;;;;;;5.72;3.47;;;21.10;96.20;;;;;;5090827;28;20032;-73
2023/06/16 12:35:31;;;;;;;4.75;3.67;;;21.30;96.70;;;;;;5091269;28;20055;-69
2023/06/16 12:38:30;;;;;;;5.72;3.70;;;21.20;96.30;;;;;;5092993;28;20437;-74
2023/06/16 12:41:17;;;;;;;7.32;3.88;;;21.30;95.60;;;;;;5103160;28;20376;-74
2023/06/16 12:44:03;;;;;;;4.55;3.55;;;21.20;95.40;;;;;;5088129;28;20420;-74
2023/06/16 12:46:50;;;;;;;5.85;3.80;;;21.20;95.50;;;;;;5094317;28;20035;-74
2023/06/16 12:49:36;;;;;;;10.43;3.50;;;21.20;95.70;;;;;;5089679;28;20404;-71
2023/06/16 12:52:24;;;;;;;5.60;3.20;;;21.20;95.70;;;;;;5099277;28;20020;-75
2023/06/16 12:55:10;;;;;;;7.68;3.90;;;21.20;95.40;;;;;;5090141;28;20395;-75
2023/06/16 12:57:56;;;;;;;7.18;3.55;;;21.00;94.50;;;;;;5083976;28;20024;-73
2023/06/16 13:00:42;;;;;;;6.47;3.92;;;20.90;94.70;;;;;;5096468;28;20055;-73
2023/06/16 13:03:28;;;;;;;6.50;4.30;;;20.80;94.60;;;;;;5100029;28;20076;-72
2023/06/16 13:06:18;;;;;;;6.80;4.13;;;20.80;94.90;;;;;;5105980;27;20480;-72
2023/06/16 13:09:04;;;;;;;6.25;3.10;;;20.80;94.40;;;;;;5098530;28;20035;-70
2023/06/16 13:11:52;;;;;;;4.82;3.15;;;20.90;94.20;;;;;;5094393;28;20132;-69
2023/06/16 13:14:39;;;;;;;4.95;3.60;;;20.90;93.90;;;;;;5092284;28;20035;-72
2023/06/16 13:17:25;;;;;;;5.88;3.40;;;21.10;93.90;;;;;;5090148;28;20050;-74
2023/06/16 13:20:11;;;;;;;5.90;3.60;;;21.30;93.90;;;;;;5093495;28;20446;-72
2023/06/16 13:22:57;;;;;;;7.22;4.15;;;21.50;93.50;;;;;;5098341;28;20094;-70
2023/06/16 13:25:43;;;;;;;4.90;3.70;;;21.80;93.20;;;;;;5091335;28;20107;-72
2023/06/16 13:28:29;;;;;;;5.57;3.50;;;22.00;92.80;;;;;;5102451;28;20047;-73
2023/06/16 13:31:15;;;;;;;4.95;3.72;;;22.20;92.60;;;;;;5089565;28;20038;-73
2023/06/16 13:34:01;;;;;;;5.25;3.70;;;22.40;92.30;;;;;;5089737;28;20052;-72
2023/06/16 13:36:47;;;;;;;6.88;3.42;;;22.60;91.70;;;;;;5088588;28;21046;-73
2023/06/16 13:39:33;;;;;;;4.50;3.40;;;22.70;91.70;;;;;;5102550;28;20126;-72
2023/06/16 13:42:20;;;;;;;6.00;3.58;;;22.80;91.30;;;;;;5089395;28;20031;-72
2023/06/16 13:45:06;;;;;;;4.43;3.05;;;22.70;91.20;;;;;;5094886;28;20554;-72
2023/06/16 13:47:52;;;;;;;5.63;3.42;;;22.70;91.10;;;;;;5089107;28;20028;-70
2023/06/16 13:50:38;;;;;;;8.00;3.75;;;22.70;90.90;;;;;;5092207;28;20024;-71
2023/06/16 13:53:25;;;;;;;6.68;3.80;;;22.70;90.80;;;;;;5090457;28;20024;-71
2023/06/16 13:56:11;;;;;;;6.45;3.88;;;22.70;91.10;;;;;;5088981;28;20476;-71
2023/06/16 13:58:57;;;;;;;5.55;4.00;;;22.90;91.10;;;;;;5100761;28;20035;-70
2023/06/16 14:01:43;;;;;;;6.88;3.53;;;23.00;90.60;;;;;;5095806;28;20128;-71
2023/06/16 14:04:29;;;;;;;5.05;3.80;;;23.10;90.50;;;;;;5101179;28;20134;-68
2023/06/16 14:07:15;;;;;;;6.07;3.60;;;23.20;90.00;;;;;;5096156;28;20081;-72
2023/06/16 14:10:01;;;;;;;4.28;2.88;;;23.20;90.00;;;;;;5097796;28;20032;-68
2023/06/16 14:12:47;;;;;;;4.88;3.40;;;23.40;90.10;;;;;;5103336;28;20485;-71
2023/06/16 14:15:35;;;;;;;5.85;4.00;;;23.70;90.00;;;;;;5102426;28;20050;-71
2023/06/16 14:18:21;;;;;;;6.30;4.03;;;23.80;89.10;;;;;;5093320;28;20031;-70
2023/06/16 14:21:07;;;;;;;5.18;3.55;;;23.70;89.00;;;;;;5101412;28;20032;-69
2023/06/16 14:23:53;;;;;;;6.15;3.90;;;23.90;89.10;;;;;;5090068;28;20040;-70
2023/06/16 14:26:39;;;;;;;4.82;3.53;;;24.10;88.50;;;;;;5096862;28;20419;-70
2023/06/16 14:29:25;;;;;;;5.53;3.75;;;24.30;88.00;;;;;;5099020;28;20023;-72